北京 の空港の天気 - METARとTAF

北京首都国際空港 ( ZBAA / PEK ) - 中国 北京市
飛行場実況気象(Metar)
観測時間05/31 01:30 CST (05/30 17:30 UTC)
風向・風速北西 2m/s
視程7000m
天気現象弱い雨
なし
気温19℃
湿度88%
気圧1009hPa
METARZBAA 301730Z 32002MPS 7000 -RA NSC 19/17 Q1009 NOSIG
過去の天気等 Google飛行場航空写真 Wunderground天気予報

過去48時間のMETAR

飛行場予報(TAF)
発表時間: 5/30 23:05 CST (5/30 15:05 UTC)
予報対象時間: 31日2時 CST ~ 1日2時 CST
風向・風速北北西 4m/s
視程6000m
なし
31日4時 CST ~ 31日10時 CST に一時的に
天気現象弱い雷雨
少しの積乱雲 雲底高度 910m
全天の8割程度の雲 雲底高度 1220m
TAF ZBAA 301505Z 3018/3118 33004MPS 6000 NSC TX27/3107Z TN17/3021Z
TEMPO 3020/3102 -TSRA FEW030CB BKN040